createdAt,value
2023-03-24T00:00:51.455Z,99122.19
2023-03-24T00:03:20.147Z,99113.66
2023-03-24T00:05:59.370Z,99104.28
2023-03-24T00:08:31.008Z,99111.69
2023-03-24T00:11:02.731Z,99119.09
2023-03-24T00:13:33.044Z,99117.91
2023-03-24T00:16:02.643Z,99127.44
2023-03-24T00:18:33.215Z,99129.78
2023-03-24T00:21:01.713Z,99123.44
2023-03-24T00:23:33.395Z,99127.50
2023-03-24T00:26:07.267Z,99122.19
2023-03-24T00:28:37.094Z,99116.66
2023-03-24T00:31:06.744Z,99116.81
2023-03-24T00:33:35.325Z,99112.81
2023-03-24T00:36:05.803Z,99110.41
2023-03-24T00:38:37.448Z,99106.59
2023-03-24T00:41:07.893Z,99105.81
2023-03-24T00:43:35.912Z,99109.66
2023-03-24T00:46:09.335Z,99108.19
2023-03-24T00:48:38.587Z,99098.34
2023-03-24T00:51:11.268Z,99095.13
2023-03-24T00:53:43.830Z,99095.22
2023-03-24T00:56:12.084Z,99093.72
2023-03-24T00:58:39.376Z,99089.16
2023-03-24T01:01:07.366Z,99089.78
2023-03-24T01:03:35.520Z,99088.00
2023-03-24T01:06:05.315Z,99094.13
2023-03-24T01:08:32.857Z,99082.41
2023-03-24T01:11:01.585Z,99088.63
2023-03-24T01:13:30.024Z,99090.41
2023-03-24T01:15:58.760Z,99088.06
2023-03-24T01:18:28.141Z,99095.97
2023-03-24T01:20:55.751Z,99094.44
2023-03-24T01:23:26.154Z,99091.00
2023-03-24T01:25:54.732Z,99097.22
2023-03-24T01:28:25.264Z,99093.63
2023-03-24T01:30:55.561Z,99096.19
2023-03-24T01:33:23.148Z,99104.53
2023-03-24T01:35:51.003Z,99097.50
2023-03-24T01:38:18.862Z,99100.84
2023-03-24T01:40:47.529Z,99105.75
2023-03-24T01:43:23.245Z,99103.03
2023-03-24T01:46:21.655Z,99107.38
2023-03-24T01:48:56.954Z,99111.69
2023-03-24T01:51:44.109Z,99105.06
2023-03-24T01:54:17.826Z,99099.63
2023-03-24T01:56:50.884Z,99104.78
2023-03-24T01:59:27.690Z,99100.34
2023-03-24T02:02:15.125Z,99107.34
2023-03-24T02:05:05.013Z,99102.34
2023-03-24T02:08:04.909Z,99098.28
2023-03-24T02:10:35.641Z,99095.53
2023-03-24T02:13:04.856Z,99097.25
2023-03-24T02:15:35.784Z,99089.16
2023-03-24T02:18:03.261Z,99094.66
2023-03-24T02:20:59.110Z,99095.41
2023-03-24T02:23:44.660Z,99091.06
2023-03-24T02:26:14.717Z,99100.09
2023-03-24T02:29:23.727Z,99102.59
2023-03-24T02:32:35.554Z,99093.53
2023-03-24T02:35:34.487Z,99107.34
2023-03-24T02:38:07.839Z,99096.75
2023-03-24T02:40:36.708Z,99091.66
2023-03-24T02:43:17.484Z,99108.72
2023-03-24T02:45:52.817Z,99098.38
2023-03-24T02:48:23.699Z,99100.19
2023-03-24T02:50:55.046Z,99097.25
2023-03-24T02:53:51.114Z,99096.97
2023-03-24T02:56:56.229Z,99099.03
2023-03-24T03:00:00.599Z,99105.47
2023-03-24T03:03:07.748Z,99114.44
2023-03-24T03:05:41.150Z,99110.06
2023-03-24T03:08:12.942Z,99108.09
2023-03-24T03:10:47.427Z,99117.69
2023-03-24T03:13:31.276Z,99116.03
2023-03-24T03:16:03.361Z,99125.47
2023-03-24T03:18:57.516Z,99126.50
2023-03-24T03:21:28.595Z,99128.41
2023-03-24T03:24:04.374Z,99126.22
2023-03-24T03:26:33.506Z,99138.75
2023-03-24T03:29:09.493Z,99138.53
2023-03-24T03:31:44.422Z,99140.13
2023-03-24T03:34:38.034Z,99138.59
2023-03-24T03:37:08.749Z,99146.28
2023-03-24T03:39:45.694Z,99151.97
2023-03-24T03:42:15.067Z,99148.88
2023-03-24T03:44:42.870Z,99151.59
2023-03-24T03:47:10.486Z,99141.25
2023-03-24T03:49:44.716Z,99143.34
2023-03-24T03:52:13.889Z,99143.81
2023-03-24T03:54:43.702Z,99151.88
2023-03-24T03:57:13.616Z,99145.91
2023-03-24T04:00:16.674Z,99138.44
2023-03-24T04:03:33.500Z,99147.06
2023-03-24T04:06:25.568Z,99155.97
2023-03-24T04:09:19.677Z,99164.72
2023-03-24T04:11:53.662Z,99160.13
2023-03-24T04:14:57.302Z,99156.22
2023-03-24T04:18:14.812Z,99156.78
2023-03-24T04:21:02.515Z,99150.34
2023-03-24T04:23:50.814Z,99166.66
2023-03-24T04:26:26.342Z,99164.41
2023-03-24T04:29:05.338Z,99166.50
2023-03-24T04:31:38.690Z,99163.31
2023-03-24T04:34:31.258Z,99165.34
2023-03-24T04:37:33.162Z,99169.91
2023-03-24T04:40:11.224Z,99164.81
2023-03-24T04:42:45.711Z,99166.66
2023-03-24T04:45:15.170Z,99168.63
2023-03-24T04:48:13.721Z,99162.66
2023-03-24T04:50:58.044Z,99165.81
2023-03-24T04:53:29.679Z,99171.75
2023-03-24T04:56:27.865Z,99168.81
2023-03-24T04:59:21.694Z,99169.59
2023-03-24T05:01:52.087Z,99173.00
2023-03-24T05:04:40.438Z,99170.06
2023-03-24T05:07:37.123Z,99164.16
2023-03-24T05:10:09.870Z,99168.59
2023-03-24T05:12:45.262Z,99173.75
2023-03-24T05:15:41.508Z,99169.75
2023-03-24T05:18:29.109Z,99173.56
2023-03-24T05:20:57.848Z,99176.03
2023-03-24T05:23:26.237Z,99174.50
2023-03-24T05:25:55.568Z,99174.50
2023-03-24T05:28:25.186Z,99171.94
2023-03-24T05:30:55.152Z,99175.34
2023-03-24T05:34:01.283Z,99169.38
2023-03-24T05:36:30.026Z,99176.25
2023-03-24T05:38:59.836Z,99178.13
2023-03-24T05:41:38.730Z,99173.19
2023-03-24T05:44:06.538Z,99185.44
2023-03-24T05:46:33.974Z,99183.41
2023-03-24T05:49:04.733Z,99194.19
2023-03-24T05:51:35.702Z,99184.19
2023-03-24T05:54:06.568Z,99190.03
2023-03-24T05:56:43.342Z,99188.81
2023-03-24T05:59:34.452Z,99186.03
2023-03-24T06:02:28.199Z,99185.94
2023-03-24T06:05:02.039Z,99190.19
2023-03-24T06:07:31.028Z,99191.22
2023-03-24T06:10:03.354Z,99185.59
2023-03-24T06:12:39.724Z,99194.22
2023-03-24T06:15:08.871Z,99197.88
2023-03-24T06:17:37.924Z,99203.72
2023-03-24T06:20:16.156Z,99198.66
2023-03-24T06:23:00.035Z,99194.94
2023-03-24T06:25:36.537Z,99203.25
2023-03-24T06:28:15.556Z,99190.69
2023-03-24T06:30:46.934Z,99199.44
2023-03-24T06:33:22.551Z,99202.97
2023-03-24T06:35:54.557Z,99197.41
2023-03-24T06:38:22.705Z,99192.75
2023-03-24T06:40:50.193Z,99190.59
2023-03-24T06:43:17.833Z,99193.78
2023-03-24T06:45:46.784Z,99193.25
2023-03-24T06:48:22.055Z,99195.81
2023-03-24T06:50:52.377Z,99191.13
2023-03-24T06:53:22.246Z,99188.03
2023-03-24T06:55:51.264Z,99191.25
2023-03-24T06:58:20.877Z,99179.00
2023-03-24T07:01:18.120Z,99189.31
2023-03-24T07:04:08.810Z,99197.38
2023-03-24T07:07:12.475Z,99192.84
2023-03-24T07:09:48.733Z,99187.94
2023-03-24T07:12:16.186Z,99192.72
2023-03-24T07:14:44.138Z,99196.34
2023-03-24T07:17:13.166Z,99192.31
2023-03-24T07:19:58.483Z,99194.22
2023-03-24T07:22:45.748Z,99198.72
2023-03-24T07:25:31.106Z,99194.91
2023-03-24T07:28:16.036Z,99199.34
2023-03-24T07:30:43.702Z,99195.47
2023-03-24T07:33:12.929Z,99192.56
2023-03-24T07:35:45.148Z,99194.81
2023-03-24T07:38:12.740Z,99189.59
2023-03-24T07:40:40.484Z,99196.81
2023-03-24T07:43:08.230Z,99183.59
2023-03-24T07:45:47.930Z,99192.25
2023-03-24T07:48:16.553Z,99186.25
2023-03-24T07:50:44.863Z,99181.75
2023-03-24T07:53:35.599Z,99177.78
2023-03-24T07:56:03.704Z,99178.13
2023-03-24T07:58:31.808Z,99179.22
2023-03-24T08:01:19.291Z,99179.00
2023-03-24T08:03:55.209Z,99178.31
2023-03-24T08:06:46.212Z,99186.25
2023-03-24T08:09:14.939Z,99190.88
2023-03-24T08:11:42.410Z,99189.63
2023-03-24T08:14:13.056Z,99196.13
2023-03-24T08:16:40.518Z,99193.84
2023-03-24T08:19:08.518Z,99191.41
2023-03-24T08:21:37.310Z,99187.34
2023-03-24T08:24:07.078Z,99191.56
2023-03-24T08:26:35.628Z,99185.72
2023-03-24T08:29:04.018Z,99181.84
2023-03-24T08:31:38.795Z,99185.38
2023-03-24T08:34:11.954Z,99188.19
2023-03-24T08:36:39.390Z,99184.19
2023-03-24T08:39:10.462Z,99179.94
2023-03-24T08:41:38.275Z,99174.34
2023-03-24T08:44:07.182Z,99178.75
2023-03-24T08:46:35.239Z,99185.81
2023-03-24T08:49:03.106Z,99180.81
2023-03-24T08:51:34.099Z,99179.44
2023-03-24T08:54:04.142Z,99179.59
2023-03-24T08:56:32.237Z,99181.41
2023-03-24T08:58:59.646Z,99173.84
2023-03-24T09:01:27.619Z,99176.59
2023-03-24T09:03:58.948Z,99172.59
2023-03-24T09:06:27.605Z,99174.84
2023-03-24T09:08:56.186Z,99165.88
2023-03-24T09:11:24.259Z,99169.66
2023-03-24T09:13:51.708Z,99161.03
2023-03-24T09:16:19.571Z,99153.97
2023-03-24T09:18:48.145Z,99157.16
2023-03-24T09:21:15.806Z,99146.66
2023-03-24T09:23:44.925Z,99141.22
2023-03-24T09:26:12.475Z,99146.84
2023-03-24T09:28:40.105Z,99142.97
2023-03-24T09:31:07.785Z,99133.13
2023-03-24T09:33:35.919Z,99143.47
2023-03-24T09:36:05.585Z,99139.72
2023-03-24T09:38:35.829Z,99134.13
2023-03-24T09:41:06.134Z,99142.22
2023-03-24T09:43:40.720Z,99135.06
2023-03-24T09:46:16.908Z,99128.25
2023-03-24T09:48:51.568Z,99123.59
2023-03-24T09:51:34.890Z,99127.91
2023-03-24T09:54:45.293Z,99127.88
2023-03-24T09:57:23.945Z,99127.59
2023-03-24T09:59:52.095Z,99121.31
2023-03-24T10:02:21.802Z,99118.09
2023-03-24T10:04:51.110Z,99114.25
2023-03-24T10:07:37.970Z,99126.56
2023-03-24T10:10:19.907Z,99115.59
2023-03-24T10:12:50.125Z,99114.84
2023-03-24T10:15:37.945Z,99117.16
2023-03-24T10:18:24.331Z,99114.56
2023-03-24T10:21:00.718Z,99105.44
2023-03-24T10:24:03.033Z,99099.94
2023-03-24T10:26:46.480Z,99102.72
2023-03-24T10:29:24.943Z,99103.63
2023-03-24T10:32:13.178Z,99103.53
2023-03-24T10:34:45.750Z,99094.78
2023-03-24T10:37:16.672Z,99099.31
2023-03-24T10:39:45.506Z,99092.34
2023-03-24T10:42:19.949Z,99077.25
2023-03-24T10:44:50.510Z,99085.44
2023-03-24T10:47:27.171Z,99082.97
2023-03-24T10:49:57.075Z,99079.22
2023-03-24T10:52:25.793Z,99086.34
2023-03-24T10:54:59.902Z,99090.19
2023-03-24T10:57:27.949Z,99082.09
2023-03-24T11:00:01.064Z,99080.13
2023-03-24T11:02:34.787Z,99083.28
2023-03-24T11:05:15.984Z,99086.84
2023-03-24T11:07:46.944Z,99083.75
2023-03-24T11:10:17.814Z,99081.94
2023-03-24T11:12:54.574Z,99084.13
2023-03-24T11:15:29.475Z,99068.94
2023-03-24T11:18:07.631Z,99062.78
2023-03-24T11:20:40.999Z,99048.97
2023-03-24T11:23:22.365Z,99052.50
2023-03-24T11:26:16.864Z,99053.56
2023-03-24T11:29:10.390Z,99046.88
2023-03-24T11:31:39.749Z,99036.16
2023-03-24T11:34:20.634Z,99028.00
2023-03-24T11:36:54.802Z,99028.78
2023-03-24T11:39:34.869Z,99032.34
2023-03-24T11:42:13.113Z,99026.25
2023-03-24T11:44:46.723Z,99019.88
2023-03-24T11:47:36.802Z,99023.09
2023-03-24T11:50:10.985Z,99021.53
2023-03-24T11:52:57.968Z,99020.84
2023-03-24T11:55:44.019Z,99023.03
2023-03-24T11:58:28.528Z,99017.81
2023-03-24T12:01:08.682Z,99014.44
2023-03-24T12:04:04.717Z,99017.69
2023-03-24T12:06:47.747Z,99018.09
2023-03-24T12:09:34.667Z,99014.63
2023-03-24T12:12:27.149Z,99017.38
2023-03-24T12:15:27.160Z,99007.19
2023-03-24T12:18:09.062Z,99005.91
2023-03-24T12:20:44.921Z,99008.94
2023-03-24T12:23:34.587Z,99000.22
2023-03-24T12:26:32.503Z,98995.66
2023-03-24T12:29:22.272Z,98998.53
2023-03-24T12:32:17.946Z,98989.06
2023-03-24T12:34:49.142Z,98986.81
2023-03-24T12:37:27.049Z,98983.16
2023-03-24T12:40:32.403Z,98978.94
2023-03-24T12:43:11.844Z,98976.66
2023-03-24T12:45:40.204Z,98976.69
2023-03-24T12:48:43.336Z,98972.19
2023-03-24T12:51:29.891Z,98976.28
2023-03-24T12:54:26.269Z,98969.97
2023-03-24T12:57:03.919Z,98970.88
2023-03-24T12:59:58.353Z,98959.91
2023-03-24T13:02:32.174Z,98978.81
2023-03-24T13:05:09.374Z,98977.53
2023-03-24T13:07:39.593Z,98968.09
2023-03-24T13:10:20.749Z,98954.81
2023-03-24T13:13:08.911Z,98962.97
2023-03-24T13:15:52.679Z,98957.94
2023-03-24T13:18:20.017Z,98967.44
2023-03-24T13:20:52.819Z,98958.25
2023-03-24T13:23:46.518Z,98971.06
2023-03-24T13:26:40.138Z,98967.56
2023-03-24T13:29:49.149Z,98950.00
2023-03-24T13:32:20.781Z,98960.00
2023-03-24T13:35:26.734Z,98971.50
2023-03-24T13:38:14.649Z,98969.63
2023-03-24T13:40:44.383Z,98967.41
2023-03-24T13:43:30.715Z,98967.91
2023-03-24T13:46:03.638Z,98969.03
2023-03-24T13:48:42.539Z,98969.31
2023-03-24T13:51:28.030Z,98968.78
2023-03-24T13:54:27.554Z,98962.94
2023-03-24T13:57:08.165Z,98957.41
2023-03-24T13:59:41.941Z,98955.88
2023-03-24T14:02:30.133Z,98954.28
2023-03-24T14:05:40.774Z,98959.16
2023-03-24T14:08:15.149Z,98951.34
2023-03-24T14:10:50.779Z,98963.91
2023-03-24T14:13:19.388Z,98959.13
2023-03-24T14:15:50.738Z,98952.53
2023-03-24T14:18:24.833Z,98955.63
2023-03-24T14:20:58.737Z,98962.31
2023-03-24T14:23:38.742Z,98955.19
2023-03-24T14:26:14.683Z,98947.66
2023-03-24T14:28:47.730Z,98945.03
2023-03-24T14:31:16.867Z,98953.88
2023-03-24T14:33:55.771Z,98946.13
2023-03-24T14:36:30.999Z,98940.44
2023-03-24T14:39:07.646Z,98939.47
2023-03-24T14:41:39.656Z,98936.50
2023-03-24T14:44:08.516Z,98938.31
2023-03-24T14:46:38.689Z,98936.22
2023-03-24T14:49:12.313Z,98943.28
2023-03-24T14:52:25.041Z,98944.28
2023-03-24T14:54:58.989Z,98943.38
2023-03-24T14:57:41.636Z,98937.59
2023-03-24T15:00:32.090Z,98940.94
2023-03-24T15:03:11.998Z,98932.78
2023-03-24T15:05:39.646Z,98939.59
2023-03-24T15:08:21.732Z,98942.47
2023-03-24T15:10:52.966Z,98933.72
2023-03-24T15:13:41.911Z,98932.91
2023-03-24T15:16:12.715Z,98932.09
2023-03-24T15:19:05.515Z,98932.56
2023-03-24T15:21:42.392Z,98939.66
2023-03-24T15:24:22.661Z,98938.13
2023-03-24T15:26:55.844Z,98939.56
2023-03-24T15:29:24.266Z,98933.63
2023-03-24T15:31:53.629Z,98938.59
2023-03-24T15:34:51.265Z,98946.06
2023-03-24T15:37:40.677Z,98942.63
2023-03-24T15:40:31.886Z,98940.78
2023-03-24T15:43:01.961Z,98940.50
2023-03-24T15:45:33.341Z,98937.53
2023-03-24T15:48:20.347Z,98943.56
2023-03-24T15:51:01.172Z,98945.53
2023-03-24T15:54:01.675Z,98945.38
2023-03-24T15:56:32.019Z,98947.44
2023-03-24T15:59:16.005Z,98937.69
2023-03-24T16:01:45.476Z,98944.81
2023-03-24T16:04:19.817Z,98939.13
2023-03-24T16:06:54.396Z,98944.56
2023-03-24T16:09:28.161Z,98950.56
2023-03-24T16:11:56.219Z,98944.47
2023-03-24T16:14:29.207Z,98945.50
2023-03-24T16:16:59.347Z,98947.28
2023-03-24T16:19:27.544Z,98945.50
2023-03-24T16:21:55.865Z,98953.59
2023-03-24T16:24:23.734Z,98950.97
2023-03-24T16:26:51.281Z,98950.75
2023-03-24T16:29:22.336Z,98954.66
2023-03-24T16:31:52.174Z,98951.31
2023-03-24T16:34:21.332Z,98947.94
2023-03-24T16:36:50.263Z,98955.97
2023-03-24T16:39:29.259Z,98951.38
2023-03-24T16:41:56.948Z,98955.75
2023-03-24T16:44:25.016Z,98963.28
2023-03-24T16:46:54.186Z,98959.91
2023-03-24T16:49:23.108Z,98959.03
2023-03-24T16:51:51.162Z,98957.34
2023-03-24T16:54:20.108Z,98956.50
2023-03-24T16:56:47.660Z,98957.34
2023-03-24T16:59:15.894Z,98967.19
2023-03-24T17:01:46.362Z,98960.97
2023-03-24T17:04:21.390Z,98967.19
2023-03-24T17:06:53.587Z,98968.97
2023-03-24T17:09:21.792Z,98968.97
2023-03-24T17:11:52.424Z,98969.59
2023-03-24T17:14:19.822Z,98976.88
2023-03-24T17:16:49.454Z,98968.47
2023-03-24T17:19:19.476Z,98970.00
2023-03-24T17:22:05.098Z,98965.25
2023-03-24T17:24:36.921Z,98966.63
2023-03-24T17:27:10.469Z,98971.41
2023-03-24T17:29:38.024Z,98982.34
2023-03-24T17:32:05.899Z,98983.47
2023-03-24T17:34:33.097Z,98990.41
2023-03-24T17:37:01.062Z,98996.19
2023-03-24T17:39:28.220Z,98997.56
2023-03-24T17:42:01.348Z,98997.16
2023-03-24T17:44:28.767Z,98996.44
2023-03-24T17:46:56.213Z,98993.88
2023-03-24T17:49:23.605Z,98996.84
2023-03-24T17:51:50.737Z,98995.44
2023-03-24T17:54:20.595Z,99002.25
2023-03-24T17:56:47.589Z,99009.56
2023-03-24T17:59:15.023Z,99006.78
2023-03-24T18:01:42.327Z,99011.22
2023-03-24T18:04:09.642Z,99013.41
2023-03-24T18:06:38.780Z,99017.84
2023-03-24T18:09:06.910Z,99005.66
2023-03-24T18:11:34.111Z,99008.00
2023-03-24T18:14:03.584Z,99009.66
2023-03-24T18:16:31.258Z,99015.63
2023-03-24T18:19:00.713Z,99009.56
2023-03-24T18:21:28.835Z,99002.66
2023-03-24T18:23:56.720Z,99004.34
2023-03-24T18:26:24.058Z,99006.28
2023-03-24T18:28:51.784Z,99008.72
2023-03-24T18:31:21.565Z,99000.47
2023-03-24T18:33:51.280Z,99001.44
2023-03-24T18:36:26.656Z,99001.78
2023-03-24T18:39:04.551Z,98997.31
2023-03-24T18:41:32.680Z,98999.00
2023-03-24T18:43:59.931Z,98992.47
2023-03-24T18:46:27.743Z,98992.72
2023-03-24T18:48:55.717Z,98993.22
2023-03-24T18:51:25.697Z,98990.44
2023-03-24T18:53:53.290Z,98981.72
2023-03-24T18:56:23.504Z,98985.81
2023-03-24T18:58:52.544Z,98982.31
2023-03-24T19:01:23.250Z,98980.72
2023-03-24T19:03:52.066Z,98979.38
2023-03-24T19:06:20.021Z,98974.50
2023-03-24T19:08:51.861Z,98967.06
2023-03-24T19:11:19.544Z,98946.56
2023-03-24T19:13:49.993Z,98949.94
2023-03-24T19:16:19.448Z,98953.03
2023-03-24T19:18:48.788Z,98951.66
2023-03-24T19:21:17.277Z,98940.41
2023-03-24T19:23:47.023Z,98943.41
2023-03-24T19:26:16.757Z,98938.81
2023-03-24T19:28:44.493Z,98940.25
2023-03-24T19:31:15.376Z,98940.69
2023-03-24T19:33:43.099Z,98924.09
2023-03-24T19:36:13.517Z,98927.94
2023-03-24T19:38:40.753Z,98924.66
2023-03-24T19:41:10.797Z,98922.44
2023-03-24T19:43:38.286Z,98918.81
2023-03-24T19:46:07.279Z,98913.28
2023-03-24T19:48:35.183Z,98916.38
2023-03-24T19:51:02.869Z,98906.88
2023-03-24T19:53:30.126Z,98896.25
2023-03-24T19:55:58.517Z,98895.84
2023-03-24T19:58:26.263Z,98894.06
2023-03-24T20:00:53.973Z,98883.41
2023-03-24T20:03:21.536Z,98884.13
2023-03-24T20:05:50.379Z,98885.72
2023-03-24T20:08:19.376Z,98885.72
2023-03-24T20:10:47.217Z,98881.25
2023-03-24T20:13:14.588Z,98874.56
2023-03-24T20:15:41.920Z,98872.09
2023-03-24T20:18:10.693Z,98868.50
2023-03-24T20:20:38.257Z,98872.53
2023-03-24T20:23:05.670Z,98869.66
2023-03-24T20:25:32.878Z,98863.28
2023-03-24T20:27:59.954Z,98869.66
2023-03-24T20:30:31.587Z,98866.38
2023-03-24T20:32:59.105Z,98869.03
2023-03-24T20:35:28.412Z,98866.59
2023-03-24T20:37:55.586Z,98868.22
2023-03-24T20:40:26.685Z,98858.19
2023-03-24T20:42:54.320Z,98856.47
2023-03-24T20:45:21.633Z,98854.78
2023-03-24T20:47:48.934Z,98844.25
2023-03-24T20:50:16.379Z,98841.03
2023-03-24T20:52:43.396Z,98844.03
2023-03-24T20:55:11.747Z,98839.31
2023-03-24T20:57:39.176Z,98830.38
2023-03-24T21:00:14.413Z,98833.66
2023-03-24T21:02:43.145Z,98831.13
2023-03-24T21:05:11.240Z,98827.06
2023-03-24T21:07:39.150Z,98828.69
2023-03-24T21:10:07.044Z,98837.72
2023-03-24T21:12:35.047Z,98821.75
2023-03-24T21:15:02.566Z,98824.91
2023-03-24T21:17:32.921Z,98832.00
2023-03-24T21:20:12.843Z,98828.72
2023-03-24T21:22:56.006Z,98826.91
2023-03-24T21:25:29.135Z,98819.91
2023-03-24T21:27:57.724Z,98812.44
2023-03-24T21:30:27.372Z,98813.66
2023-03-24T21:32:56.785Z,98802.19
2023-03-24T21:35:25.552Z,98803.00
2023-03-24T21:37:54.063Z,98799.19
2023-03-24T21:40:24.229Z,98794.91
2023-03-24T21:42:53.435Z,98797.25
2023-03-24T21:45:23.587Z,98792.38
2023-03-24T21:47:51.550Z,98790.69
2023-03-24T21:50:23.529Z,98788.75
2023-03-24T21:52:54.853Z,98799.41
2023-03-24T21:55:23.248Z,98789.94
2023-03-24T21:57:51.292Z,98794.63
2023-03-24T22:00:21.611Z,98799.50
2023-03-24T22:02:51.424Z,98798.69
2023-03-24T22:05:23.730Z,98788.53
2023-03-24T22:07:52.877Z,98798.44
2023-03-24T22:10:24.797Z,98797.56
2023-03-24T22:12:54.007Z,98791.75
2023-03-24T22:15:21.798Z,98800.56
2023-03-24T22:17:50.602Z,98801.84
2023-03-24T22:20:17.893Z,98802.78
2023-03-24T22:22:45.724Z,98802.63
2023-03-24T22:25:15.687Z,98782.63
2023-03-24T22:27:43.238Z,98788.91
2023-03-24T22:30:13.045Z,98792.69
2023-03-24T22:32:41.350Z,98786.19
2023-03-24T22:35:09.348Z,98785.00
2023-03-24T22:37:37.009Z,98790.78
2023-03-24T22:40:05.959Z,98786.53
2023-03-24T22:42:33.448Z,98795.25
2023-03-24T22:45:00.761Z,98796.44
2023-03-24T22:47:29.187Z,98786.66
2023-03-24T22:49:56.979Z,98778.66
2023-03-24T22:52:24.370Z,98781.22
2023-03-24T22:54:51.620Z,98776.25
2023-03-24T22:57:19.264Z,98770.81
2023-03-24T22:59:46.455Z,98778.47
2023-03-24T23:02:14.092Z,98777.84
2023-03-24T23:04:42.542Z,98785.84
2023-03-24T23:07:10.382Z,98771.69
2023-03-24T23:09:38.848Z,98778.19
2023-03-24T23:12:07.160Z,98781.94
2023-03-24T23:14:34.848Z,98782.03
2023-03-24T23:17:02.350Z,98779.75
2023-03-24T23:19:33.446Z,98780.72
2023-03-24T23:22:00.987Z,98773.34
2023-03-24T23:24:29.141Z,98773.94
2023-03-24T23:26:57.082Z,98777.03
2023-03-24T23:29:24.303Z,98773.38
2023-03-24T23:31:51.619Z,98775.19
2023-03-24T23:34:19.338Z,98776.03
2023-03-24T23:36:50.758Z,98771.56
2023-03-24T23:39:18.489Z,98772.03
2023-03-24T23:41:46.869Z,98769.81
2023-03-24T23:44:15.103Z,98765.47
2023-03-24T23:46:44.961Z,98767.75
2023-03-24T23:49:12.091Z,98769.41
2023-03-24T23:51:39.239Z,98763.19
2023-03-24T23:54:06.476Z,98758.97
2023-03-24T23:56:37.187Z,98763.69
2023-03-24T23:59:08.330Z,98761.13
